sensor_id;sensor_type;location;lat;lon;timestamp;pressure;altitude;pressure_sealevel;temperature;humidity
12785;BME280;6456;42.680;23.260;2023-04-04T00:00:23;93234.41;;;8.21;100.00
12785;BME280;6456;42.680;23.260;2023-04-04T00:02:50;93204.94;;;7.91;100.00
12785;BME280;6456;42.680;23.260;2023-04-04T00:05:17;93236.78;;;8.34;100.00
12785;BME280;6456;42.680;23.260;2023-04-04T00:07:46;93230.28;;;8.36;100.00
12785;BME280;6456;42.680;23.260;2023-04-04T00:10:13;93225.84;;;8.25;100.00
12785;BME280;6456;42.680;23.260;2023-04-04T00:12:40;93234.13;;;8.46;100.00
12785;BME280;6456;42.680;23.260;2023-04-04T00:15:08;93164.16;;;7.95;100.00
12785;BME280;6456;42.680;23.260;2023-04-04T00:17:35;93246.34;;;8.40;100.00
12785;BME280;6456;42.680;23.260;2023-04-04T00:20:03;93234.13;;;8.46;100.00
12785;BME280;6456;42.680;23.260;2023-04-04T00:22:30;93230.16;;;8.43;100.00
12785;BME280;6456;42.680;23.260;2023-04-04T00:24:58;93198.34;;;8.39;100.00
12785;BME280;6456;42.680;23.260;2023-04-04T00:27:25;93206.19;;;8.51;100.00
12785;BME280;6456;42.680;23.260;2023-04-04T00:29:52;93197.78;;;8.49;100.00
12785;BME280;6456;42.680;23.260;2023-04-04T00:32:19;93220.53;;;8.77;100.00
12785;BME280;6456;42.680;23.260;2023-04-04T00:34:51;93167.16;;;8.38;100.00
12785;BME280;6456;42.680;23.260;2023-04-04T00:37:18;93106.38;;;8.13;100.00
12785;BME280;6456;42.680;23.260;2023-04-04T00:39:47;93212.75;;;8.82;100.00
12785;BME280;6456;42.680;23.260;2023-04-04T00:42:16;93217.50;;;8.96;100.00
12785;BME280;6456;42.680;23.260;2023-04-04T00:44:43;93209.84;;;8.95;100.00
12785;BME280;6456;42.680;23.260;2023-04-04T00:47:10;93214.28;;;8.94;100.00
12785;BME280;6456;42.680;23.260;2023-04-04T00:49:37;93203.81;;;8.94;100.00
12785;BME280;6456;42.680;23.260;2023-04-04T00:52:04;93116.50;;;8.49;100.00
12785;BME280;6456;42.680;23.260;2023-04-04T00:54:32;93190.78;;;8.99;100.00
12785;BME280;6456;42.680;23.260;2023-04-04T00:57:00;93191.28;;;8.96;100.00
12785;BME280;6456;42.680;23.260;2023-04-04T00:59:29;93134.88;;;8.66;100.00
12785;BME280;6456;42.680;23.260;2023-04-04T01:01:56;93120.34;;;8.58;100.00
12785;BME280;6456;42.680;23.260;2023-04-04T01:04:24;93179.19;;;8.95;100.00
12785;BME280;6456;42.680;23.260;2023-04-04T01:06:52;93167.59;;;8.91;100.00
12785;BME280;6456;42.680;23.260;2023-04-04T01:09:20;93104.25;;;8.38;100.00
12785;BME280;6456;42.680;23.260;2023-04-04T01:11:47;93229.16;;;9.34;100.00
12785;BME280;6456;42.680;23.260;2023-04-04T01:14:14;93127.22;;;8.64;100.00
12785;BME280;6456;42.680;23.260;2023-04-04T01:16:43;93235.75;;;9.36;100.00
12785;BME280;6456;42.680;23.260;2023-04-04T01:19:15;93211.09;;;9.21;100.00
12785;BME280;6456;42.680;23.260;2023-04-04T01:21:43;93205.59;;;9.22;100.00
12785;BME280;6456;42.680;23.260;2023-04-04T01:24:12;93133.69;;;8.73;100.00
12785;BME280;6456;42.680;23.260;2023-04-04T01:26:43;93228.44;;;9.38;100.00
12785;BME280;6456;42.680;23.260;2023-04-04T01:29:11;93125.13;;;8.78;100.00
12785;BME280;6456;42.680;23.260;2023-04-04T01:31:39;93065.03;;;8.43;100.00
12785;BME280;6456;42.680;23.260;2023-04-04T01:36:58;93214.19;;;9.51;100.00
12785;BME280;6456;42.680;23.260;2023-04-04T01:39:30;93070.09;;;8.50;100.00
12785;BME280;6456;42.680;23.260;2023-04-04T01:42:01;93155.81;;;9.11;100.00
12785;BME280;6456;42.680;23.260;2023-04-04T01:44:29;93136.91;;;9.09;100.00
12785;BME280;6456;42.680;23.260;2023-04-04T01:46:57;93134.34;;;9.14;100.00
12785;BME280;6456;42.680;23.260;2023-04-04T01:49:23;93187.28;;;9.60;100.00
12785;BME280;6456;42.680;23.260;2023-04-04T01:51:51;93150.22;;;9.40;100.00
12785;BME280;6456;42.680;23.260;2023-04-04T01:54:19;93069.09;;;8.84;100.00
12785;BME280;6456;42.680;23.260;2023-04-04T01:56:47;93178.22;;;9.51;100.00
12785;BME280;6456;42.680;23.260;2023-04-04T01:59:15;93041.69;;;8.58;100.00
12785;BME280;6456;42.680;23.260;2023-04-04T02:01:42;93186.19;;;9.56;100.00
12785;BME280;6456;42.680;23.260;2023-04-04T02:04:09;93153.09;;;9.39;100.00
12785;BME280;6456;42.680;23.260;2023-04-04T02:06:37;93165.97;;;9.40;100.00
12785;BME280;6456;42.680;23.260;2023-04-04T02:09:04;93146.19;;;9.33;100.00
12785;BME280;6456;42.680;23.260;2023-04-04T02:11:31;93130.75;;;9.20;100.00
12785;BME280;6456;42.680;23.260;2023-04-04T02:13:58;93190.16;;;9.59;100.00
12785;BME280;6456;42.680;23.260;2023-04-04T02:16:26;93176.38;;;9.52;100.00
12785;BME280;6456;42.680;23.260;2023-04-04T02:18:53;93128.13;;;9.20;100.00
12785;BME280;6456;42.680;23.260;2023-04-04T02:21:21;93186.66;;;9.53;100.00
12785;BME280;6456;42.680;23.260;2023-04-04T02:23:50;93026.22;;;8.57;100.00
12785;BME280;6456;42.680;23.260;2023-04-04T02:26:18;93175.28;;;9.48;100.00
12785;BME280;6456;42.680;23.260;2023-04-04T02:28:45;93156.75;;;9.38;100.00
12785;BME280;6456;42.680;23.260;2023-04-04T02:31:12;93125.28;;;9.21;100.00
12785;BME280;6456;42.680;23.260;2023-04-04T02:33:40;93082.84;;;8.91;100.00
12785;BME280;6456;42.680;23.260;2023-04-04T02:36:07;93178.06;;;9.58;100.00
12785;BME280;6456;42.680;23.260;2023-04-04T02:38:34;93184.31;;;9.57;100.00
12785;BME280;6456;42.680;23.260;2023-04-04T02:41:01;93181.97;;;9.55;100.00
12785;BME280;6456;42.680;23.260;2023-04-04T02:43:28;93150.41;;;9.34;100.00
12785;BME280;6456;42.680;23.260;2023-04-04T02:45:55;93186.94;;;9.57;100.00
12785;BME280;6456;42.680;23.260;2023-04-04T02:48:22;93148.50;;;9.29;100.00
12785;BME280;6456;42.680;23.260;2023-04-04T02:50:51;93188.56;;;9.58;100.00
12785;BME280;6456;42.680;23.260;2023-04-04T02:53:18;93158.09;;;9.40;100.00
12785;BME280;6456;42.680;23.260;2023-04-04T02:55:44;93184.97;;;9.47;100.00
12785;BME280;6456;42.680;23.260;2023-04-04T02:58:12;93195.34;;;9.54;100.00
12785;BME280;6456;42.680;23.260;2023-04-04T03:00:39;93191.50;;;9.45;100.00
12785;BME280;6456;42.680;23.260;2023-04-04T03:03:05;93168.69;;;9.29;100.00
12785;BME280;6456;42.680;23.260;2023-04-04T03:05:32;93122.91;;;9.03;100.00
12785;BME280;6456;42.680;23.260;2023-04-04T03:08:01;93208.47;;;9.54;100.00
12785;BME280;6456;42.680;23.260;2023-04-04T03:10:29;93208.47;;;9.54;100.00
12785;BME280;6456;42.680;23.260;2023-04-04T03:12:56;93204.47;;;9.51;100.00
12785;BME280;6456;42.680;23.260;2023-04-04T03:15:23;93170.78;;;9.27;100.00
12785;BME280;6456;42.680;23.260;2023-04-04T03:17:51;93064.72;;;8.56;100.00
12785;BME280;6456;42.680;23.260;2023-04-04T03:20:21;93132.03;;;9.00;100.00
12785;BME280;6456;42.680;23.260;2023-04-04T03:22:48;93161.47;;;9.19;100.00
12785;BME280;6456;42.680;23.260;2023-04-04T03:25:16;93113.34;;;8.80;100.00
12785;BME280;6456;42.680;23.260;2023-04-04T03:27:43;93201.38;;;9.38;100.00
12785;BME280;6456;42.680;23.260;2023-04-04T03:30:11;93094.66;;;8.60;100.00
12785;BME280;6456;42.680;23.260;2023-04-04T03:32:38;93116.53;;;8.82;100.00
12785;BME280;6456;42.680;23.260;2023-04-04T03:35:05;93129.50;;;8.89;100.00
12785;BME280;6456;42.680;23.260;2023-04-04T03:37:32;93183.81;;;9.22;100.00
12785;BME280;6456;42.680;23.260;2023-04-04T03:40:00;93200.34;;;9.39;100.00
12785;BME280;6456;42.680;23.260;2023-04-04T03:42:32;93152.00;;;9.01;100.00
12785;BME280;6456;42.680;23.260;2023-04-04T03:45:04;93204.00;;;9.38;100.00
12785;BME280;6456;42.680;23.260;2023-04-04T03:47:31;93204.00;;;9.38;100.00
12785;BME280;6456;42.680;23.260;2023-04-04T03:49:58;93168.38;;;9.09;100.00
12785;BME280;6456;42.680;23.260;2023-04-04T03:52:25;93112.81;;;8.78;100.00
12785;BME280;6456;42.680;23.260;2023-04-04T03:54:52;93149.94;;;9.03;100.00
12785;BME280;6456;42.680;23.260;2023-04-04T03:57:19;93164.50;;;9.11;100.00
12785;BME280;6456;42.680;23.260;2023-04-04T03:59:47;93102.16;;;8.68;100.00
12785;BME280;6456;42.680;23.260;2023-04-04T04:02:14;93111.38;;;8.71;100.00
12785;BME280;6456;42.680;23.260;2023-04-04T04:04:41;93140.78;;;8.89;100.00
12785;BME280;6456;42.680;23.260;2023-04-04T04:07:08;93126.09;;;8.88;100.00
12785;BME280;6456;42.680;23.260;2023-04-04T04:09:35;93190.88;;;9.38;100.00
12785;BME280;6456;42.680;23.260;2023-04-04T04:12:03;93126.47;;;8.80;100.00
12785;BME280;6456;42.680;23.260;2023-04-04T04:14:30;93162.16;;;9.15;100.00
12785;BME280;6456;42.680;23.260;2023-04-04T04:16:58;93140.38;;;8.97;100.00
12785;BME280;6456;42.680;23.260;2023-04-04T04:19:25;93127.03;;;8.82;100.00
12785;BME280;6456;42.680;23.260;2023-04-04T04:21:52;93188.00;;;9.23;100.00
12785;BME280;6456;42.680;23.260;2023-04-04T04:24:19;93158.81;;;9.02;100.00
12785;BME280;6456;42.680;23.260;2023-04-04T04:26:46;93142.38;;;8.90;100.00
12785;BME280;6456;42.680;23.260;2023-04-04T04:29:13;93163.84;;;9.04;100.00
12785;BME280;6456;42.680;23.260;2023-04-04T04:31:40;93174.44;;;9.09;100.00
12785;BME280;6456;42.680;23.260;2023-04-04T04:34:09;93128.63;;;8.83;100.00
12785;BME280;6456;42.680;23.260;2023-04-04T04:36:35;93119.31;;;8.59;100.00
12785;BME280;6456;42.680;23.260;2023-04-04T04:39:02;93157.00;;;8.86;100.00
12785;BME280;6456;42.680;23.260;2023-04-04T04:41:29;93233.50;;;9.45;100.00
12785;BME280;6456;42.680;23.260;2023-04-04T04:43:57;93222.25;;;9.44;100.00
12785;BME280;6456;42.680;23.260;2023-04-04T04:46:23;93193.56;;;9.10;100.00
12785;BME280;6456;42.680;23.260;2023-04-04T04:48:50;93253.78;;;9.49;100.00
12785;BME280;6456;42.680;23.260;2023-04-04T04:51:18;93259.84;;;9.50;100.00
12785;BME280;6456;42.680;23.260;2023-04-04T04:53:45;93186.34;;;9.00;100.00
12785;BME280;6456;42.680;23.260;2023-04-04T04:56:12;93262.16;;;9.46;100.00
12785;BME280;6456;42.680;23.260;2023-04-04T04:58:39;93243.75;;;9.30;100.00
12785;BME280;6456;42.680;23.260;2023-04-04T05:01:06;93184.88;;;8.92;100.00
12785;BME280;6456;42.680;23.260;2023-04-04T05:03:32;93197.31;;;9.14;100.00
12785;BME280;6456;42.680;23.260;2023-04-04T05:06:00;93249.44;;;9.38;100.00
12785;BME280;6456;42.680;23.260;2023-04-04T05:08:28;93266.22;;;9.54;100.00
12785;BME280;6456;42.680;23.260;2023-04-04T05:10:55;93187.38;;;8.99;100.00
12785;BME280;6456;42.680;23.260;2023-04-04T05:13:22;93275.47;;;9.56;100.00
12785;BME280;6456;42.680;23.260;2023-04-04T05:15:49;93244.44;;;9.37;100.00
12785;BME280;6456;42.680;23.260;2023-04-04T05:18:16;93277.50;;;9.54;100.00
12785;BME280;6456;42.680;23.260;2023-04-04T05:20:49;93272.91;;;9.61;100.00
12785;BME280;6456;42.680;23.260;2023-04-04T05:23:16;93195.88;;;9.23;100.00
12785;BME280;6456;42.680;23.260;2023-04-04T05:25:44;93222.72;;;9.41;100.00
12785;BME280;6456;42.680;23.260;2023-04-04T05:28:11;93246.31;;;9.58;100.00
12785;BME280;6456;42.680;23.260;2023-04-04T05:30:38;93271.38;;;9.82;100.00
12785;BME280;6456;42.680;23.260;2023-04-04T05:33:05;93256.66;;;9.64;100.00
12785;BME280;6456;42.680;23.260;2023-04-04T05:35:32;93274.16;;;9.92;100.00
12785;BME280;6456;42.680;23.260;2023-04-04T05:37:59;93282.69;;;9.99;100.00
12785;BME280;6456;42.680;23.260;2023-04-04T05:40:26;93289.47;;;10.12;100.00
12785;BME280;6456;42.680;23.260;2023-04-04T05:42:55;93192.00;;;9.42;100.00
12785;BME280;6456;42.680;23.260;2023-04-04T05:45:22;93300.75;;;10.12;100.00
12785;BME280;6456;42.680;23.260;2023-04-04T05:47:48;93310.25;;;10.13;100.00
12785;BME280;6456;42.680;23.260;2023-04-04T05:50:15;93305.84;;;10.19;100.00
12785;BME280;6456;42.680;23.260;2023-04-04T05:52:42;93253.38;;;9.91;100.00
12785;BME280;6456;42.680;23.260;2023-04-04T05:55:09;93298.84;;;10.24;100.00
12785;BME280;6456;42.680;23.260;2023-04-04T05:57:36;93312.06;;;10.29;100.00
12785;BME280;6456;42.680;23.260;2023-04-04T06:00:06;93280.97;;;10.10;100.00
12785;BME280;6456;42.680;23.260;2023-04-04T06:02:33;93310.72;;;10.27;100.00
12785;BME280;6456;42.680;23.260;2023-04-04T06:05:01;93232.47;;;9.79;100.00
12785;BME280;6456;42.680;23.260;2023-04-04T06:07:28;93324.22;;;10.36;100.00
12785;BME280;6456;42.680;23.260;2023-04-04T06:09:54;93304.78;;;10.37;100.00
12785;BME280;6456;42.680;23.260;2023-04-04T06:12:22;93183.78;;;9.72;100.00
12785;BME280;6456;42.680;23.260;2023-04-04T06:14:48;93316.72;;;10.66;100.00
12785;BME280;6456;42.680;23.260;2023-04-04T06:17:17;93304.59;;;10.65;100.00
12785;BME280;6456;42.680;23.260;2023-04-04T06:19:43;93214.13;;;10.01;100.00
12785;BME280;6456;42.680;23.260;2023-04-04T06:22:10;93325.97;;;10.90;100.00
12785;BME280;6456;42.680;23.260;2023-04-04T06:24:37;93272.56;;;10.46;100.00
12785;BME280;6456;42.680;23.260;2023-04-04T06:27:04;93332.09;;;10.36;100.00
12785;BME280;6456;42.680;23.260;2023-04-04T06:29:31;93343.59;;;9.96;100.00
12785;BME280;6456;42.680;23.260;2023-04-04T06:31:58;93319.59;;;9.43;100.00
12785;BME280;6456;42.680;23.260;2023-04-04T06:34:26;93331.59;;;9.39;100.00
12785;BME280;6456;42.680;23.260;2023-04-04T06:36:53;93347.91;;;9.13;100.00
12785;BME280;6456;42.680;23.260;2023-04-04T06:39:20;93378.41;;;9.02;100.00
12785;BME280;6456;42.680;23.260;2023-04-04T06:41:47;93330.50;;;8.55;100.00
12785;BME280;6456;42.680;23.260;2023-04-04T06:44:14;93379.75;;;8.76;100.00
12785;BME280;6456;42.680;23.260;2023-04-04T06:46:41;93354.59;;;8.41;100.00
12785;BME280;6456;42.680;23.260;2023-04-04T06:49:08;93371.69;;;8.31;100.00
12785;BME280;6456;42.680;23.260;2023-04-04T06:51:36;93420.34;;;8.27;100.00
12785;BME280;6456;42.680;23.260;2023-04-04T06:54:03;93404.44;;;7.99;100.00
12785;BME280;6456;42.680;23.260;2023-04-04T06:56:30;93415.72;;;7.88;100.00
12785;BME280;6456;42.680;23.260;2023-04-04T06:58:57;93312.47;;;7.01;100.00
12785;BME280;6456;42.680;23.260;2023-04-04T07:01:24;93397.78;;;7.32;100.00
12785;BME280;6456;42.680;23.260;2023-04-04T07:03:51;93319.69;;;6.76;100.00
12785;BME280;6456;42.680;23.260;2023-04-04T07:06:20;93439.38;;;7.22;100.00
12785;BME280;6456;42.680;23.260;2023-04-04T07:08:49;93445.13;;;7.13;100.00
12785;BME280;6456;42.680;23.260;2023-04-04T07:11:16;93448.50;;;6.83;100.00
12785;BME280;6456;42.680;23.260;2023-04-04T07:13:43;93464.91;;;6.90;100.00
12785;BME280;6456;42.680;23.260;2023-04-04T07:16:10;93462.78;;;6.81;100.00
12785;BME280;6456;42.680;23.260;2023-04-04T07:18:37;93330.50;;;5.82;100.00
12785;BME280;6456;42.680;23.260;2023-04-04T07:21:04;93449.31;;;6.59;100.00
12785;BME280;6456;42.680;23.260;2023-04-04T07:23:31;93479.00;;;6.71;100.00
12785;BME280;6456;42.680;23.260;2023-04-04T07:25:59;93422.00;;;6.37;100.00
12785;BME280;6456;42.680;23.260;2023-04-04T07:28:27;93442.44;;;6.22;100.00
12785;BME280;6456;42.680;23.260;2023-04-04T07:30:53;93467.47;;;6.36;100.00
12785;BME280;6456;42.680;23.260;2023-04-04T07:33:20;93495.75;;;6.64;100.00
12785;BME280;6456;42.680;23.260;2023-04-04T07:35:47;93408.91;;;6.01;100.00
12785;BME280;6456;42.680;23.260;2023-04-04T07:38:14;93517.50;;;6.58;100.00
12785;BME280;6456;42.680;23.260;2023-04-04T07:40:41;93513.41;;;6.43;100.00
12785;BME280;6456;42.680;23.260;2023-04-04T07:43:09;93502.66;;;6.33;100.00
12785;BME280;6456;42.680;23.260;2023-04-04T07:45:36;93529.13;;;6.37;100.00
12785;BME280;6456;42.680;23.260;2023-04-04T07:48:03;93460.78;;;5.84;100.00
12785;BME280;6456;42.680;23.260;2023-04-04T07:50:30;93532.53;;;6.13;100.00
12785;BME280;6456;42.680;23.260;2023-04-04T07:52:57;93548.53;;;6.23;100.00
12785;BME280;6456;42.680;23.260;2023-04-04T07:55:23;93548.22;;;6.06;100.00
12785;BME280;6456;42.680;23.260;2023-04-04T07:57:50;93541.63;;;6.04;100.00
12785;BME280;6456;42.680;23.260;2023-04-04T08:00:20;93537.88;;;5.93;100.00
12785;BME280;6456;42.680;23.260;2023-04-04T08:02:53;93550.41;;;6.09;100.00
12785;BME280;6456;42.680;23.260;2023-04-04T08:05:23;93552.41;;;6.14;100.00
12785;BME280;6456;42.680;23.260;2023-04-04T08:07:50;93548.56;;;6.16;100.00
12785;BME280;6456;42.680;23.260;2023-04-04T08:10:17;93538.69;;;5.94;100.00
12785;BME280;6456;42.680;23.260;2023-04-04T08:12:46;93518.03;;;5.79;100.00
12785;BME280;6456;42.680;23.260;2023-04-04T08:15:15;93550.75;;;5.81;100.00
12785;BME280;6456;42.680;23.260;2023-04-04T08:17:44;93603.69;;;6.02;100.00
12785;BME280;6456;42.680;23.260;2023-04-04T08:20:11;93546.75;;;5.79;100.00
12785;BME280;6456;42.680;23.260;2023-04-04T08:22:39;93586.22;;;6.02;100.00
12785;BME280;6456;42.680;23.260;2023-04-04T08:25:07;93457.56;;;5.19;100.00
12785;BME280;6456;42.680;23.260;2023-04-04T08:27:35;93578.81;;;5.99;100.00
12785;BME280;6456;42.680;23.260;2023-04-04T08:30:02;93589.06;;;5.94;100.00
12785;BME280;6456;42.680;23.260;2023-04-04T08:32:29;93620.66;;;5.86;100.00
12785;BME280;6456;42.680;23.260;2023-04-04T08:34:57;93623.47;;;5.78;100.00
12785;BME280;6456;42.680;23.260;2023-04-04T08:37:24;93618.31;;;5.65;100.00
12785;BME280;6456;42.680;23.260;2023-04-04T08:39:53;93488.34;;;4.91;100.00
12785;BME280;6456;42.680;23.260;2023-04-04T08:42:20;93603.81;;;5.69;100.00
12785;BME280;6456;42.680;23.260;2023-04-04T08:44:51;93598.63;;;5.62;100.00
12785;BME280;6456;42.680;23.260;2023-04-04T08:47:20;93622.34;;;5.61;100.00
12785;BME280;6456;42.680;23.260;2023-04-04T08:49:50;93618.34;;;5.58;100.00
12785;BME280;6456;42.680;23.260;2023-04-04T08:52:21;93547.09;;;5.00;100.00
12785;BME280;6456;42.680;23.260;2023-04-04T08:54:50;93635.59;;;5.53;100.00
12785;BME280;6456;42.680;23.260;2023-04-04T08:57:18;93622.19;;;5.43;100.00
12785;BME280;6456;42.680;23.260;2023-04-04T08:59:45;93615.84;;;5.12;100.00
12785;BME280;6456;42.680;23.260;2023-04-04T09:02:20;93515.88;;;4.68;100.00
12785;BME280;6456;42.680;23.260;2023-04-04T09:04:51;93650.09;;;5.42;100.00
12785;BME280;6456;42.680;23.260;2023-04-04T09:07:20;93645.06;;;5.47;100.00
12785;BME280;6456;42.680;23.260;2023-04-04T09:09:48;93651.88;;;5.48;100.00
12785;BME280;6456;42.680;23.260;2023-04-04T09:12:17;93619.63;;;5.30;100.00
12785;BME280;6456;42.680;23.260;2023-04-04T09:14:45;93646.47;;;5.37;100.00
12785;BME280;6456;42.680;23.260;2023-04-04T09:17:14;93637.38;;;5.65;100.00
12785;BME280;6456;42.680;23.260;2023-04-04T09:19:41;93634.38;;;5.62;100.00
12785;BME280;6456;42.680;23.260;2023-04-04T09:22:08;93612.75;;;5.48;100.00
12785;BME280;6456;42.680;23.260;2023-04-04T09:24:40;93649.22;;;5.68;100.00
12785;BME280;6456;42.680;23.260;2023-04-04T09:27:08;93674.94;;;5.58;100.00
12785;BME280;6456;42.680;23.260;2023-04-04T09:29:36;93563.09;;;5.10;100.00
12785;BME280;6456;42.680;23.260;2023-04-04T09:32:04;93590.34;;;5.14;100.00
12785;BME280;6456;42.680;23.260;2023-04-04T09:34:33;93649.22;;;5.68;100.00
12785;BME280;6456;42.680;23.260;2023-04-04T09:37:00;93669.25;;;5.74;100.00
12785;BME280;6456;42.680;23.260;2023-04-04T09:39:28;93569.88;;;5.25;100.00
12785;BME280;6456;42.680;23.260;2023-04-04T09:41:59;93631.59;;;5.44;100.00
12785;BME280;6456;42.680;23.260;2023-04-04T09:44:27;93663.47;;;5.65;100.00
12785;BME280;6456;42.680;23.260;2023-04-04T09:47:06;93661.69;;;5.53;100.00
12785;BME280;6456;42.680;23.260;2023-04-04T09:49:48;93659.50;;;5.50;100.00
12785;BME280;6456;42.680;23.260;2023-04-04T09:52:17;93687.00;;;5.46;100.00
12785;BME280;6456;42.680;23.260;2023-04-04T09:54:54;93568.00;;;4.68;100.00
12785;BME280;6456;42.680;23.260;2023-04-04T09:57:23;93662.31;;;5.42;100.00
12785;BME280;6456;42.680;23.260;2023-04-04T09:59:56;93656.91;;;5.37;100.00
12785;BME280;6456;42.680;23.260;2023-04-04T10:02:24;93678.00;;;5.22;100.00
12785;BME280;6456;42.680;23.260;2023-04-04T10:04:52;93673.81;;;5.14;100.00
12785;BME280;6456;42.680;23.260;2023-04-04T10:07:22;93660.94;;;5.19;100.00
12785;BME280;6456;42.680;23.260;2023-04-04T10:09:51;93663.72;;;5.31;100.00
12785;BME280;6456;42.680;23.260;2023-04-04T10:12:20;93600.81;;;5.01;100.00
12785;BME280;6456;42.680;23.260;2023-04-04T10:14:54;93690.59;;;5.58;100.00
12785;BME280;6456;42.680;23.260;2023-04-04T10:17:24;93671.69;;;5.62;100.00
12785;BME280;6456;42.680;23.260;2023-04-04T10:19:56;93681.72;;;5.72;100.00
12785;BME280;6456;42.680;23.260;2023-04-04T10:22:28;93605.00;;;5.15;100.00
12785;BME280;6456;42.680;23.260;2023-04-04T10:25:03;93615.97;;;5.37;100.00
12785;BME280;6456;42.680;23.260;2023-04-04T10:27:31;93686.69;;;5.87;100.00
12785;BME280;6456;42.680;23.260;2023-04-04T10:30:00;93702.19;;;5.88;100.00
12785;BME280;6456;42.680;23.260;2023-04-04T10:32:42;93701.34;;;6.01;100.00
12785;BME280;6456;42.680;23.260;2023-04-04T10:35:11;93632.03;;;5.41;99.06
12785;BME280;6456;42.680;23.260;2023-04-04T10:37:42;93704.19;;;5.86;98.96
12785;BME280;6456;42.680;23.260;2023-04-04T10:40:14;93704.38;;;5.91;99.12
12785;BME280;6456;42.680;23.260;2023-04-04T10:42:45;93628.59;;;5.47;100.00
12785;BME280;6456;42.680;23.260;2023-04-04T10:45:16;93686.53;;;5.88;99.07
12785;BME280;6456;42.680;23.260;2023-04-04T10:47:48;93683.28;;;5.79;98.32
12785;BME280;6456;42.680;23.260;2023-04-04T10:50:16;93707.38;;;6.01;99.18
12785;BME280;6456;42.680;23.260;2023-04-04T10:52:45;93562.53;;;4.95;98.07
12785;BME280;6456;42.680;23.260;2023-04-04T10:55:12;93680.78;;;5.53;98.16
12785;BME280;6456;42.680;23.260;2023-04-04T10:57:41;93734.50;;;5.80;98.40
12785;BME280;6456;42.680;23.260;2023-04-04T11:00:10;93576.59;;;4.88;98.48
12785;BME280;6456;42.680;23.260;2023-04-04T11:02:53;93725.09;;;5.86;99.32
12785;BME280;6456;42.680;23.260;2023-04-04T11:05:25;93721.66;;;5.86;98.88
12785;BME280;6456;42.680;23.260;2023-04-04T11:07:56;93739.53;;;5.89;100.00
12785;BME280;6456;42.680;23.260;2023-04-04T11:10:29;93640.13;;;5.13;99.17
12785;BME280;6456;42.680;23.260;2023-04-04T11:12:57;93740.75;;;5.66;99.03
12785;BME280;6456;42.680;23.260;2023-04-04T11:15:44;93727.72;;;5.60;100.00
12785;BME280;6456;42.680;23.260;2023-04-04T11:18:13;93717.91;;;5.55;100.00
12785;BME280;6456;42.680;23.260;2023-04-04T11:20:43;93677.22;;;4.95;100.00
12785;BME280;6456;42.680;23.260;2023-04-04T11:23:16;93682.84;;;4.92;100.00
12785;BME280;6456;42.680;23.260;2023-04-04T11:25:50;93763.66;;;5.38;100.00
12785;BME280;6456;42.680;23.260;2023-04-04T11:28:25;93762.44;;;5.34;100.00
12785;BME280;6456;42.680;23.260;2023-04-04T11:31:22;93761.66;;;5.27;100.00
12785;BME280;6456;42.680;23.260;2023-04-04T11:34:00;93755.44;;;5.35;100.00
12785;BME280;6456;42.680;23.260;2023-04-04T11:36:50;93756.63;;;5.32;100.00
12785;BME280;6456;42.680;23.260;2023-04-04T11:39:29;93725.16;;;5.07;100.00
12785;BME280;6456;42.680;23.260;2023-04-04T11:42:00;93699.06;;;4.75;100.00
12785;BME280;6456;42.680;23.260;2023-04-04T11:44:30;93712.31;;;4.73;100.00
12785;BME280;6456;42.680;23.260;2023-04-04T11:47:01;93755.63;;;5.20;100.00
12785;BME280;6456;42.680;23.260;2023-04-04T11:49:33;93722.34;;;4.89;100.00
12785;BME280;6456;42.680;23.260;2023-04-04T11:52:03;93725.34;;;4.99;100.00
12785;BME280;6456;42.680;23.260;2023-04-04T11:54:34;93759.25;;;5.12;100.00
12785;BME280;6456;42.680;23.260;2023-04-04T11:57:01;93693.03;;;4.61;100.00
12785;BME280;6456;42.680;23.260;2023-04-04T11:59:28;93772.91;;;5.08;100.00
12785;BME280;6456;42.680;23.260;2023-04-04T12:01:56;93747.00;;;4.93;100.00
12785;BME280;6456;42.680;23.260;2023-04-04T12:04:24;93757.03;;;4.96;100.00
12785;BME280;6456;42.680;23.260;2023-04-04T12:06:54;93587.19;;;3.95;100.00
12785;BME280;6456;42.680;23.260;2023-04-04T12:09:26;93675.78;;;4.40;100.00
12785;BME280;6456;42.680;23.260;2023-04-04T12:11:57;93752.34;;;4.59;100.00
12785;BME280;6456;42.680;23.260;2023-04-04T12:14:27;93687.56;;;4.23;100.00
12785;BME280;6456;42.680;23.260;2023-04-04T12:16:57;93678.19;;;4.35;100.00
12785;BME280;6456;42.680;23.260;2023-04-04T12:19:39;93795.72;;;4.93;100.00
12785;BME280;6456;42.680;23.260;2023-04-04T12:22:19;93696.41;;;4.42;100.00
12785;BME280;6456;42.680;23.260;2023-04-04T12:24:46;93652.09;;;4.16;100.00
12785;BME280;6456;42.680;23.260;2023-04-04T12:27:20;93736.75;;;4.66;100.00
12785;BME280;6456;42.680;23.260;2023-04-04T12:29:55;93658.09;;;4.10;100.00
12785;BME280;6456;42.680;23.260;2023-04-04T12:35:17;93622.16;;;3.72;100.00
12785;BME280;6456;42.680;23.260;2023-04-04T12:38:00;93708.97;;;4.19;100.00
12785;BME280;6456;42.680;23.260;2023-04-04T12:40:30;93690.28;;;4.02;100.00
12785;BME280;6456;42.680;23.260;2023-04-04T12:42:59;93720.19;;;4.19;100.00
12785;BME280;6456;42.680;23.260;2023-04-04T12:45:30;93664.31;;;3.61;100.00
12785;BME280;6456;42.680;23.260;2023-04-04T12:47:59;93575.97;;;3.34;100.00
12785;BME280;6456;42.680;23.260;2023-04-04T12:50:30;93662.97;;;3.78;100.00
12785;BME280;6456;42.680;23.260;2023-04-04T12:53:04;93706.19;;;4.27;100.00
12785;BME280;6456;42.680;23.260;2023-04-04T12:55:48;93787.66;;;4.75;100.00
12785;BME280;6456;42.680;23.260;2023-04-04T12:58:17;93721.03;;;4.33;100.00
12785;BME280;6456;42.680;23.260;2023-04-04T13:00:45;93698.09;;;4.02;100.00
12785;BME280;6456;42.680;23.260;2023-04-04T13:03:18;93751.88;;;4.36;100.00
12785;BME280;6456;42.680;23.260;2023-04-04T13:05:46;93657.53;;;3.60;100.00
12785;BME280;6456;42.680;23.260;2023-04-04T13:08:15;93694.03;;;3.86;100.00
12785;BME280;6456;42.680;23.260;2023-04-04T13:11:00;93638.06;;;3.50;100.00
12785;BME280;6456;42.680;23.260;2023-04-04T13:13:36;93663.22;;;3.43;100.00